createdAt,value
2023-10-22T00:02:01.853Z,1.47
2023-10-22T00:07:07.031Z,1.61
2023-10-22T00:12:11.988Z,1.69
2023-10-22T00:17:15.159Z,1.86
2023-10-22T00:22:20.437Z,1.77
2023-10-22T00:27:23.992Z,1.83
2023-10-22T00:32:27.425Z,1.93
2023-10-22T00:37:32.794Z,2.06
2023-10-22T00:42:36.461Z,2.05
2023-10-22T00:47:40.200Z,1.91
2023-10-22T00:52:45.131Z,1.76
2023-10-22T00:57:49.542Z,1.51
2023-10-22T01:02:53.305Z,1.54
2023-10-22T01:07:59.187Z,1.83
2023-10-22T01:13:02.677Z,1.85
2023-10-22T01:18:06.604Z,2.04
2023-10-22T01:23:13.518Z,2.11
2023-10-22T01:28:17.143Z,2.08
2023-10-22T01:33:20.797Z,2.06
2023-10-22T01:38:25.844Z,2.26
2023-10-22T01:43:29.584Z,2.05
2023-10-22T01:48:33.419Z,1.98
2023-10-22T01:53:38.578Z,2.15
2023-10-22T01:58:41.974Z,2.01
2023-10-22T02:03:48.050Z,2.02
2023-10-22T02:08:53.214Z,2.11
2023-10-22T02:13:57.058Z,2.14
2023-10-22T02:19:00.652Z,2.27
2023-10-22T02:24:25.420Z,2.29
2023-10-22T02:29:28.740Z,2.44
2023-10-22T02:34:32.258Z,2.34
2023-10-22T02:39:37.130Z,2.45
2023-10-22T02:44:41.234Z,2.50
2023-10-22T02:49:44.884Z,2.34
2023-10-22T02:54:50.417Z,2.41
2023-10-22T02:59:53.978Z,2.31
2023-10-22T03:04:58.383Z,2.30
2023-10-22T03:10:04.667Z,2.35
2023-10-22T03:15:09.836Z,2.25
2023-10-22T03:20:13.990Z,2.27
2023-10-22T03:25:20.028Z,2.39
2023-10-22T03:30:23.706Z,2.42
2023-10-22T03:35:28.430Z,2.56
2023-10-22T03:40:35.887Z,2.76
2023-10-22T03:45:39.584Z,2.67
2023-10-22T03:50:46.114Z,2.76
2023-10-22T03:55:51.729Z,2.91
2023-10-22T04:00:57.240Z,2.96
2023-10-22T04:06:00.895Z,2.80
2023-10-22T04:11:06.206Z,3.07
2023-10-22T04:16:16.815Z,3.19
2023-10-22T04:21:20.482Z,3.23
2023-10-22T04:26:25.552Z,3.28
2023-10-22T04:31:29.196Z,3.31
2023-10-22T04:36:33.668Z,3.28
2023-10-22T04:41:38.810Z,3.25
2023-10-22T04:46:42.444Z,3.09
2023-10-22T04:51:46.443Z,3.13
2023-10-22T04:56:51.343Z,3.07
2023-10-22T05:01:55.811Z,3.01
2023-10-22T05:06:59.481Z,3.02
2023-10-22T05:12:04.586Z,3.12
2023-10-22T05:17:08.322Z,3.10
2023-10-22T05:22:11.817Z,3.04
2023-10-22T05:27:17.337Z,3.13
2023-10-22T05:32:20.979Z,3.25
2023-10-22T05:37:25.263Z,3.23
2023-10-22T05:42:30.284Z,3.13
2023-10-22T05:47:34.238Z,3.02
2023-10-22T05:52:37.701Z,2.93
2023-10-22T05:57:42.496Z,2.87
2023-10-22T06:02:45.994Z,2.70
2023-10-22T06:07:50.008Z,2.77
2023-10-22T06:12:55.221Z,2.95
2023-10-22T06:17:58.990Z,3.07
2023-10-22T06:23:02.748Z,2.99
2023-10-22T06:28:08.005Z,2.91
2023-10-22T06:33:11.759Z,2.96
2023-10-22T06:38:15.367Z,2.90
2023-10-22T06:43:20.543Z,3.15
2023-10-22T06:48:24.482Z,3.05
2023-10-22T06:53:27.938Z,3.04
2023-10-22T06:58:33.621Z,2.99
2023-10-22T07:03:37.301Z,3.04
2023-10-22T07:08:41.514Z,2.99
2023-10-22T07:13:46.712Z,2.97
2023-10-22T07:18:50.561Z,3.05
2023-10-22T07:23:55.742Z,2.92
2023-10-22T07:29:01.152Z,2.99
2023-10-22T07:34:04.755Z,2.97
2023-10-22T07:39:09.208Z,3.11
2023-10-22T07:44:14.925Z,3.07
2023-10-22T07:49:18.499Z,3.33
2023-10-22T07:54:22.130Z,3.69
2023-10-22T07:59:27.353Z,3.63
2023-10-22T08:04:31.015Z,3.85
2023-10-22T08:09:34.703Z,3.91
2023-10-22T08:14:39.669Z,4.01
2023-10-22T08:19:43.169Z,4.00
2023-10-22T08:24:49.845Z,4.30
2023-10-22T08:29:56.329Z,4.52
2023-10-22T08:35:00.301Z,4.54
2023-10-22T08:40:07.345Z,4.45
2023-10-22T08:45:12.723Z,4.49
2023-10-22T08:50:19.664Z,4.65
2023-10-22T08:55:24.340Z,4.85
2023-10-22T09:00:32.413Z,4.73
2023-10-22T09:05:36.156Z,5.04
2023-10-22T09:10:40.051Z,5.18
2023-10-22T09:15:45.935Z,5.37
2023-10-22T09:20:50.377Z,5.19
2023-10-22T09:25:55.545Z,5.48
2023-10-22T09:31:02.084Z,5.61
2023-10-22T09:36:07.853Z,5.48
2023-10-22T09:41:13.717Z,5.54
2023-10-22T09:46:20.530Z,5.60
2023-10-22T09:51:25.656Z,5.71
2023-10-22T09:56:31.694Z,5.22
2023-10-22T10:01:37.741Z,5.05
2023-10-22T10:06:42.285Z,5.24
2023-10-22T10:11:45.981Z,5.23
2023-10-22T10:17:02.427Z,5.02
2023-10-22T10:22:06.499Z,5.06
2023-10-22T10:27:26.988Z,4.88
2023-10-22T10:32:31.947Z,5.14
2023-10-22T10:37:35.907Z,5.34
2023-10-22T10:42:51.428Z,5.32
2023-10-22T10:47:56.408Z,5.36
2023-10-22T10:53:04.334Z,5.13
2023-10-22T10:58:07.775Z,5.07
2023-10-22T11:03:23.450Z,5.16
2023-10-22T11:08:28.979Z,5.30
2023-10-22T11:13:33.581Z,5.16
2023-10-22T11:18:54.751Z,5.11
2023-10-22T11:23:58.584Z,4.95
2023-10-22T11:29:02.436Z,4.91
2023-10-22T11:34:18.222Z,4.85
2023-10-22T11:39:38.385Z,5.05
2023-10-22T11:44:48.012Z,4.84
2023-10-22T11:49:53.112Z,4.82
2023-10-22T11:54:57.258Z,5.06
2023-10-22T12:00:01.173Z,4.83
2023-10-22T12:05:06.709Z,4.96
2023-10-22T12:10:11.562Z,4.77
2023-10-22T12:15:15.386Z,4.62
2023-10-22T12:20:21.360Z,4.59
2023-10-22T12:25:25.128Z,4.74
2023-10-22T12:30:29.180Z,4.66
2023-10-22T12:35:34.197Z,4.66
2023-10-22T12:40:37.945Z,4.72
2023-10-22T12:45:42.628Z,4.61
2023-10-22T12:50:51.043Z,4.53
2023-10-22T12:55:55.509Z,4.49
2023-10-22T13:01:01.153Z,4.50
2023-10-22T13:06:07.424Z,4.71
2023-10-22T13:11:11.350Z,4.70
2023-10-22T13:16:15.069Z,4.40
2023-10-22T13:21:20.216Z,4.36
2023-10-22T13:26:24.543Z,4.30
2023-10-22T13:31:28.143Z,4.26
2023-10-22T13:36:33.265Z,4.52
2023-10-22T13:41:36.988Z,4.33
2023-10-22T13:46:41.270Z,4.32
2023-10-22T13:51:47.442Z,4.28
2023-10-22T13:56:52.169Z,4.22
2023-10-22T14:01:55.796Z,4.13
2023-10-22T14:07:00.873Z,4.29
2023-10-22T14:12:04.576Z,4.13
2023-10-22T14:17:08.470Z,4.23
2023-10-22T14:22:13.318Z,4.25
2023-10-22T14:27:16.426Z,4.08
2023-10-22T14:32:20.419Z,4.11
2023-10-22T14:37:25.706Z,4.09
2023-10-22T14:42:29.504Z,4.21
2023-10-22T14:47:33.075Z,4.31
2023-10-22T14:52:38.154Z,4.39
2023-10-22T14:57:41.874Z,4.25
2023-10-22T15:02:48.080Z,4.12
2023-10-22T15:07:53.385Z,4.07
2023-10-22T15:12:56.950Z,4.17
2023-10-22T15:18:00.638Z,4.09
2023-10-22T15:23:05.771Z,4.09
2023-10-22T15:28:09.330Z,4.01
2023-10-22T15:33:13.140Z,4.31
2023-10-22T15:38:18.681Z,4.34
2023-10-22T15:43:22.367Z,4.09
2023-10-22T15:48:27.676Z,4.10
2023-10-22T15:53:32.748Z,4.27
2023-10-22T15:58:36.211Z,4.13
2023-10-22T16:03:40.613Z,4.12
2023-10-22T16:08:45.941Z,4.17
2023-10-22T16:13:49.552Z,4.33
2023-10-22T16:18:53.596Z,4.17
2023-10-22T16:23:58.443Z,4.18
2023-10-22T16:29:01.958Z,4.12
2023-10-22T16:34:05.635Z,4.18
2023-10-22T16:39:10.954Z,4.40
2023-10-22T16:44:14.616Z,4.39
2023-10-22T16:49:18.211Z,4.32
2023-10-22T16:54:24.412Z,4.33
2023-10-22T16:59:28.184Z,4.26
2023-10-22T17:04:31.857Z,4.19
2023-10-22T17:09:37.060Z,4.34
2023-10-22T17:14:52.048Z,4.27
2023-10-22T17:19:57.835Z,4.36
2023-10-22T17:25:03.071Z,4.33
2023-10-22T17:30:09.175Z,4.17
2023-10-22T17:35:12.962Z,4.16
2023-10-22T17:40:18.103Z,4.18
2023-10-22T17:45:22.193Z,4.28
2023-10-22T17:50:25.816Z,4.19
2023-10-22T17:55:30.842Z,4.31
2023-10-22T18:00:34.567Z,4.38
2023-10-22T18:05:38.664Z,4.36
2023-10-22T18:10:53.723Z,4.38
2023-10-22T18:15:57.408Z,4.35
2023-10-22T18:21:05.068Z,4.23
2023-10-22T18:26:11.709Z,4.35
2023-10-22T18:31:15.386Z,4.38
2023-10-22T18:36:19.160Z,4.27
2023-10-22T18:41:24.518Z,4.38
2023-10-22T18:46:31.570Z,4.44
2023-10-22T18:51:36.007Z,4.49
2023-10-22T18:56:41.805Z,4.39
2023-10-22T19:01:47.315Z,4.40
2023-10-22T19:06:50.749Z,4.50
2023-10-22T19:11:55.571Z,4.56
2023-10-22T19:16:59.533Z,4.55
2023-10-22T19:22:03.179Z,4.64
2023-10-22T19:27:08.221Z,4.51
2023-10-22T19:32:11.822Z,4.45
2023-10-22T19:37:15.326Z,4.54
2023-10-22T19:42:20.793Z,4.36
2023-10-22T19:47:24.303Z,4.38
2023-10-22T19:52:40.541Z,4.47
2023-10-22T19:57:46.966Z,4.61
2023-10-22T20:02:50.569Z,4.50
2023-10-22T20:07:54.050Z,4.48
2023-10-22T20:12:59.160Z,4.57
2023-10-22T20:18:10.790Z,4.61
2023-10-22T20:23:14.353Z,4.65
2023-10-22T20:28:19.194Z,4.54
2023-10-22T20:33:23.467Z,4.67
2023-10-22T20:38:27.209Z,4.83
2023-10-22T20:43:32.042Z,5.14
2023-10-22T20:48:37.109Z,5.18
2023-10-22T20:53:42.217Z,4.85
2023-10-22T20:58:48.609Z,4.91
2023-10-22T21:03:52.553Z,5.00
2023-10-22T21:08:56.210Z,4.85
2023-10-22T21:14:01.243Z,5.02
2023-10-22T21:19:05.011Z,5.08
2023-10-22T21:24:09.822Z,4.94
2023-10-22T21:29:14.963Z,4.84
2023-10-22T21:34:18.466Z,4.86
2023-10-22T21:39:22.717Z,5.03
2023-10-22T21:44:27.530Z,5.14
2023-10-22T21:49:31.227Z,5.17
2023-10-22T21:54:34.977Z,5.18
2023-10-22T21:59:39.982Z,5.13
2023-10-22T22:04:43.208Z,5.10
2023-10-22T22:09:46.550Z,4.92
2023-10-22T22:14:51.476Z,4.98
2023-10-22T22:19:55.470Z,5.08
2023-10-22T22:24:58.916Z,5.10
2023-10-22T22:30:03.947Z,5.22
2023-10-22T22:35:09.869Z,4.84
2023-10-22T22:40:13.865Z,4.79
2023-10-22T22:45:19.099Z,4.79
2023-10-22T22:50:22.832Z,4.97
2023-10-22T22:55:26.431Z,4.93
2023-10-22T23:00:31.685Z,4.96
2023-10-22T23:05:35.295Z,5.13
2023-10-22T23:10:39.226Z,5.23
2023-10-22T23:15:44.997Z,5.32
2023-10-22T23:20:48.548Z,5.20
2023-10-22T23:25:52.606Z,5.17
2023-10-22T23:30:57.873Z,5.31
2023-10-22T23:36:08.676Z,5.31
2023-10-22T23:41:12.059Z,5.40
2023-10-22T23:46:17.210Z,5.51
2023-10-22T23:51:21.574Z,5.45
2023-10-22T23:56:25.300Z,5.57
